Time;durP1;ratioP1;P1;durP2;ratioP2;P2;SDS_P1;SDS_P2;PMS_P1;PMS_P2;Temp;Humidity;BMP_temperature;BMP_pressure;BME280_temperature;BME280_humidity;BME280_pressure;Samples;Min_cycle;Max_cycle;Signal;HPM_P1;HPM_P2
2022/08/05 00:00:24;;;;;;;3.40;2.88;;;;;;;18.26;82.33;92972.94;2130893;27;20022;-75
2022/08/05 00:01:26;;;;;;;3.17;2.88;;;;;;;18.30;81.61;92976.16;2130778;27;20098;-75
2022/08/05 00:02:27;;;;;;;5.43;2.50;;;;;;;18.45;81.28;92973.47;2130550;27;20054;-75
2022/08/05 00:03:28;;;;;;;3.63;2.80;;;;;;;18.49;80.56;92976.72;2131520;27;20014;-74
2022/08/05 00:04:28;;;;;;;5.82;2.83;;;;;;;18.49;80.28;92989.50;2120368;27;20034;-75
2022/08/05 00:05:29;;;;;;;3.85;2.60;;;;;;;18.54;78.99;92978.75;2119114;27;20468;-76
2022/08/05 00:06:30;;;;;;;2.92;2.72;;;;;;;18.61;77.88;92986.50;2131123;27;20030;-75
2022/08/05 00:07:31;;;;;;;3.58;2.40;;;;;;;18.71;76.34;92970.16;2130451;27;20125;-76
2022/08/05 00:08:32;;;;;;;2.58;2.38;;;;;;;18.69;78.14;92978.75;2119034;27;20047;-73
2022/08/05 00:09:33;;;;;;;2.88;2.40;;;;;;;18.85;75.71;92969.38;2111414;27;20024;-74
2022/08/05 00:10:34;;;;;;;4.50;2.55;;;;;;;18.86;75.47;92978.97;2118909;27;20393;-75
2022/08/05 00:11:35;;;;;;;4.20;2.67;;;;;;;18.89;75.20;92980.75;2129685;27;20109;-76
2022/08/05 00:12:36;;;;;;;4.38;2.80;;;;;;;18.96;75.60;92977.63;2118726;27;20084;-75
2022/08/05 00:13:40;;;;;;;5.53;2.42;;;;;;;19.31;69.73;92976.84;2120023;27;20027;-75
2022/08/05 00:14:41;;;;;;;2.60;2.40;;;;;;;20.00;64.15;92972.41;2129969;27;20133;-75
2022/08/05 00:15:42;;;;;;;2.80;2.30;;;;;;;20.69;59.33;92974.47;2111794;28;20128;-75
2022/08/05 00:16:46;;;;;;;3.90;2.10;;;;;;;20.76;59.74;92976.72;2110742;28;20055;-75
2022/08/05 00:17:47;;;;;;;4.43;2.72;;;;;;;20.71;61.21;92974.72;2130867;27;20023;-75
2022/08/05 00:18:49;;;;;;;2.53;2.33;;;;;;;20.70;60.83;92973.22;2130583;27;20023;-75
2022/08/05 00:19:50;;;;;;;2.80;2.08;;;;;;;20.97;59.45;92978.06;2130399;27;20027;-76
2022/08/05 00:20:51;;;;;;;4.45;2.35;;;;;;;21.07;59.67;92965.78;2130415;27;20014;-75
2022/08/05 00:21:52;;;;;;;3.47;2.70;;;;;;;21.13;58.15;92971.25;2119648;27;20130;-74
2022/08/05 00:22:53;;;;;;;2.30;2.10;;;;;;;21.12;59.90;92967.06;2119520;27;20472;-75
2022/08/05 00:23:54;;;;;;;2.30;2.10;;;;;;;21.47;55.53;92969.44;2130415;27;20460;-74
2022/08/05 00:24:55;;;;;;;4.95;2.55;;;;;;;21.78;53.66;92967.81;2130346;27;20038;-74
2022/08/05 00:25:56;;;;;;;4.13;2.25;;;;;;;22.10;52.38;92969.09;2130662;27;20027;-75
2022/08/05 00:26:58;;;;;;;3.10;2.45;;;;;;;22.42;51.19;92963.44;2131071;27;20183;-77
2022/08/05 00:27:59;;;;;;;6.25;2.20;;;;;;;22.48;51.47;92969.63;2118125;27;20039;-74
2022/08/05 00:29:00;;;;;;;3.35;2.30;;;;;;;22.38;51.50;92960.94;2119862;27;20031;-74
2022/08/05 00:30:01;;;;;;;2.58;2.35;;;;;;;22.32;52.57;92962.94;2118898;27;20022;-76
2022/08/05 00:31:04;;;;;;;3.85;2.28;;;;;;;22.20;54.26;92971.59;2118205;27;20135;-75
2022/08/05 00:32:05;;;;;;;2.50;2.28;;;;;;;22.09;53.61;92962.16;2130512;27;20026;-75
2022/08/05 00:33:07;;;;;;;3.28;2.72;;;;;;;22.38;52.66;92960.94;2119020;27;20424;-77
2022/08/05 00:34:08;;;;;;;7.30;2.38;;;;;;;22.13;55.69;92950.31;2119267;27;20024;-75
2022/08/05 00:35:09;;;;;;;3.35;2.45;;;;;;;22.08;54.75;92955.25;2117933;27;20032;-77
2022/08/05 00:36:12;;;;;;;7.00;2.40;;;;;;;21.99;56.93;92954.72;2111021;28;20028;-74
2022/08/05 00:37:14;;;;;;;2.88;2.40;;;;;;;21.94;56.41;92956.19;2120063;27;20059;-74
2022/08/05 00:38:15;;;;;;;3.70;2.58;;;;;;;21.81;58.18;92956.66;2130599;27;20030;-77
2022/08/05 00:39:15;;;;;;;2.38;2.17;;;;;;;21.94;57.57;92953.47;2118181;27;20035;-74
2022/08/05 00:40:18;;;;;;;7.45;2.47;;;;;;;22.04;54.32;92954.00;2111904;28;20023;-74
2022/08/05 00:41:27;;;;;;;3.08;2.13;;;;;;;21.97;58.08;92952.50;2119661;27;20039;-74
2022/08/05 00:42:34;;;;;;;4.90;2.03;;;;;;;21.75;58.12;92949.72;2129525;27;20023;-75
2022/08/05 00:43:35;;;;;;;5.38;2.38;;;;;;;21.59;59.53;92948.44;2117607;27;20044;-78
2022/08/05 00:44:36;;;;;;;5.78;2.95;;;;;;;21.51;60.50;92948.19;2119049;27;20020;-78
2022/08/05 00:45:37;;;;;;;4.18;2.58;;;;;;;21.34;61.34;92945.41;2119144;27;20022;-76
2022/08/05 00:46:38;;;;;;;2.70;2.47;;;;;;;21.13;62.96;92942.09;2110116;28;20433;-76
2022/08/05 00:47:39;;;;;;;3.95;2.42;;;;;;;21.06;62.93;92944.53;2109597;28;20481;-78
2022/08/05 00:48:40;;;;;;;2.40;2.20;;;;;;;21.03;63.89;92946.25;2118662;27;20035;-75
2022/08/05 00:49:41;;;;;;;5.25;2.38;;;;;;;21.03;64.08;92948.22;2118770;27;20080;-78
2022/08/05 00:50:48;;;;;;;4.30;2.63;;;;;;;21.02;63.87;92947.47;2111302;28;20062;-77
2022/08/05 00:51:48;;;;;;;4.05;2.42;;;;;;;20.90;64.27;92951.38;2120033;27;20054;-75
2022/08/05 00:52:50;;;;;;;3.20;2.30;;;;;;;20.73;65.77;92953.25;2130781;27;20456;-74
2022/08/05 00:53:50;;;;;;;2.95;2.30;;;;;;;20.53;68.06;92946.69;2130356;27;20030;-74
2022/08/05 00:54:51;;;;;;;4.15;2.15;;;;;;;20.47;67.67;92948.59;2130636;27;20026;-74
2022/08/05 00:55:52;;;;;;;3.50;2.30;;;;;;;20.44;68.55;92954.25;2129935;27;20042;-74
2022/08/05 00:56:53;;;;;;;4.68;2.47;;;;;;;20.36;70.14;92951.22;2130898;27;20452;-78
2022/08/05 00:57:54;;;;;;;3.35;2.33;;;;;;;20.40;67.63;92956.44;2119678;27;20226;-75
2022/08/05 00:58:55;;;;;;;2.95;2.20;;;;;;;20.34;70.64;92948.28;2118739;27;20353;-74
2022/08/05 00:59:56;;;;;;;2.20;2.10;;;;;;;20.34;69.37;92949.00;2118989;27;20026;-75
2022/08/05 01:00:57;;;;;;;2.53;2.33;;;;;;;20.28;70.01;92948.22;2104740;28;20024;-77
2022/08/05 01:01:58;;;;;;;4.45;2.20;;;;;;;20.30;70.59;92947.75;2110170;27;20395;-75
2022/08/05 01:02:59;;;;;;;3.75;2.40;;;;;;;20.24;70.30;92949.69;2118644;27;20062;-75
2022/08/05 01:04:01;;;;;;;3.70;2.28;;;;;;;20.26;70.72;92944.50;2112658;27;20062;-77
2022/08/05 01:05:02;;;;;;;2.60;2.40;;;;;;;20.23;70.03;92948.91;2113048;28;20067;-75
2022/08/05 01:06:03;;;;;;;2.90;2.50;;;;;;;20.17;71.95;92947.41;2111300;28;20133;-76
2022/08/05 01:07:05;;;;;;;5.18;2.38;;;;;;;20.11;70.29;92947.34;2120701;27;20031;-76
2022/08/05 01:08:06;;;;;;;2.60;2.40;;;;;;;20.22;71.32;92949.41;2111151;28;20153;-77
2022/08/05 01:09:07;;;;;;;2.70;2.50;;;;;;;20.10;70.98;92946.59;2110789;27;20032;-76
2022/08/05 01:10:11;;;;;;;3.75;2.13;;;;;;;20.16;71.43;92943.94;2118406;27;20030;-77
2022/08/05 01:11:16;;;;;;;3.65;2.28;;;;;;;20.32;67.26;92943.31;2120753;27;20023;-75
2022/08/05 01:12:20;;;;;;;2.63;2.25;;;;;;;20.32;66.97;92945.28;2130156;27;20023;-75
2022/08/05 01:13:44;;;;;;;3.47;2.20;;;;;;;20.23;68.43;92934.59;2130228;27;20029;-74
2022/08/05 01:14:54;;;;;;;2.58;2.30;;;;;;;20.16;70.73;92945.91;2116344;27;20045;-74
2022/08/05 01:15:59;;;;;;;;;;;;;;;20.16;70.99;92943.94;2120203;27;20033;-75
2022/08/05 01:17:08;;;;;;;3.30;2.05;;;;;;;20.10;70.46;92940.41;2119599;27;19915;-75
2022/08/05 01:18:13;;;;;;;2.50;2.30;;;;;;;20.06;70.05;92940.66;2130002;27;20041;-75
2022/08/05 01:19:20;;;;;;;2.53;2.22;;;;;;;20.07;71.28;92938.69;2130243;27;20022;-74
2022/08/05 01:20:39;;;;;;;3.38;2.50;;;;;;;20.01;70.73;92930.47;2118366;27;20035;-74
2022/08/05 01:21:59;;;;;;;2.80;2.50;;;;;;;19.88;72.83;92935.53;2121987;27;20146;-75
2022/08/05 01:23:22;;;;;;;5.00;2.45;;;;;;;19.79;72.90;92938.41;2118824;27;20117;-74
2022/08/05 01:24:47;;;;;;;2.95;2.40;;;;;;;19.75;73.93;92941.34;2123611;27;20487;-74
2022/08/05 01:26:10;;;;;;;5.22;2.70;;;;;;;19.86;72.99;92936.03;2130293;27;20468;-74
2022/08/05 01:27:28;;;;;;;3.28;2.38;;;;;;;19.76;72.68;92939.41;2129098;27;20391;-75
2022/08/05 01:28:35;;;;;;;3.97;2.60;;;;;;;19.66;73.59;92933.38;2128998;27;20117;-75
2022/08/05 01:29:42;;;;;;;2.30;2.08;;;;;;;19.59;74.84;92939.94;2127193;27;20021;-75
2022/08/05 01:31:10;;;;;;;2.15;2.03;;;;;;;19.55;76.37;92939.41;2109394;28;20117;-75
2022/08/05 01:32:17;;;;;;;2.38;2.17;;;;;;;19.63;74.71;92939.03;2113241;27;20039;-74
2022/08/05 01:33:23;;;;;;;3.45;2.00;;;;;;;19.51;75.87;92935.41;2118853;27;20031;-75
2022/08/05 01:34:41;;;;;;;3.85;2.20;;;;;;;19.42;76.04;92941.72;2130033;27;20023;-74
2022/08/05 01:35:45;;;;;;;2.72;2.35;;;;;;;19.42;76.31;92943.69;2130493;27;20019;-76
2022/08/05 01:36:52;;;;;;;4.25;2.28;;;;;;;19.36;78.15;92946.34;2129805;27;20037;-74
2022/08/05 01:37:56;;;;;;;3.03;2.30;;;;;;;19.30;77.36;92951.69;2129616;27;20029;-74
2022/08/05 01:38:58;;;;;;;3.65;2.35;;;;;;;19.26;78.61;92947.69;2118451;27;20023;-74
2022/08/05 01:40:01;;;;;;;3.45;2.38;;;;;;;19.06;81.18;92951.91;2118862;27;20060;-74
2022/08/05 01:41:04;;;;;;;5.55;2.35;;;;;;;19.44;75.09;92942.00;2130253;27;20045;-74
2022/08/05 01:42:10;;;;;;;5.45;2.47;;;;;;;19.43;76.77;92945.94;2130755;27;20113;-75
2022/08/05 01:43:12;;;;;;;3.30;2.30;;;;;;;19.41;76.74;92947.63;2129299;27;20034;-73
2022/08/05 01:44:15;;;;;;;2.83;2.33;;;;;;;19.51;76.36;92944.28;2130740;27;20071;-76
2022/08/05 01:45:19;;;;;;;4.28;2.58;;;;;;;19.54;74.16;92942.59;2129100;27;20425;-74
2022/08/05 01:46:22;;;;;;;4.25;2.40;;;;;;;19.78;73.79;92945.06;2130226;27;20030;-74
2022/08/05 01:47:25;;;;;;;6.40;2.25;;;;;;;19.78;73.49;92942.38;2109870;28;20513;-79
2022/08/05 01:48:29;;;;;;;4.32;2.60;;;;;;;19.71;74.93;92943.53;2095732;28;20067;-75
2022/08/05 01:49:31;;;;;;;6.53;2.38;;;;;;;19.50;75.07;92947.50;2113708;27;20458;-74
2022/08/05 01:50:38;;;;;;;3.50;2.50;;;;;;;19.42;76.83;92944.44;2118529;27;20491;-75
2022/08/05 01:51:41;;;;;;;4.85;2.35;;;;;;;19.33;77.66;92950.00;2109946;27;20019;-75
2022/08/05 01:52:46;;;;;;;4.32;2.25;;;;;;;19.30;77.22;92950.94;2119738;27;20031;-75
2022/08/05 01:53:50;;;;;;;2.67;2.35;;;;;;;19.35;75.70;92951.00;2111398;28;20084;-75
2022/08/05 01:54:57;;;;;;;4.10;2.58;;;;;;;19.42;77.73;92959.97;2112693;27;20108;-75
2022/08/05 01:56:00;;;;;;;3.45;2.20;;;;;;;19.32;77.59;92957.41;2129197;27;20035;-75
2022/08/05 01:57:03;;;;;;;13.70;2.45;;;;;;;19.40;77.05;92968.56;2109117;28;20024;-75
2022/08/05 01:58:07;;;;;;;3.88;2.40;;;;;;;19.41;76.57;92969.31;2109530;27;20024;-75
2022/08/05 01:59:14;;;;;;;4.63;2.70;;;;;;;19.30;78.91;92967.97;2118412;27;20076;-75
2022/08/05 02:00:16;;;;;;;3.35;2.50;;;;;;;19.19;78.46;92965.13;2110424;27;20512;-75
2022/08/05 02:01:19;;;;;;;3.08;2.38;;;;;;;19.24;78.78;92974.53;2112756;27;20015;-76
2022/08/05 02:02:22;;;;;;;4.03;2.50;;;;;;;19.33;77.82;92975.16;2119212;27;20031;-76
2022/08/05 02:03:36;;;;;;;3.20;2.50;;;;;;;19.28;78.26;92980.50;2130549;27;20065;-77
2022/08/05 02:04:41;;;;;;;8.73;2.83;;;;;;;19.22;78.25;92977.72;2129301;27;20019;-75
2022/08/05 02:05:44;;;;;;;4.60;2.60;;;;;;;19.41;76.78;92982.88;2112305;28;20026;-74
2022/08/05 02:06:45;;;;;;;2.42;2.22;;;;;;;19.46;76.58;92976.78;2112448;27;20141;-75
2022/08/05 02:07:47;;;;;;;3.13;2.40;;;;;;;19.43;76.96;92986.59;2129588;27;20037;-75
2022/08/05 02:08:48;;;;;;;7.97;3.20;;;;;;;19.46;77.30;92984.91;2117688;27;20038;-75
2022/08/05 02:09:50;;;;;;;3.03;2.72;;;;;;;19.42;77.75;92992.50;2117849;27;20414;-76
2022/08/05 02:10:58;;;;;;;4.07;2.60;;;;;;;19.37;77.21;92988.50;2129928;27;20030;-76
2022/08/05 02:12:10;;;;;;;3.75;2.53;;;;;;;19.46;75.82;92988.34;2129712;27;20839;-76
2022/08/05 02:15:26;;;;;;;3.83;2.72;;;;;;;19.61;74.73;92977.44;2144751;27;20562;-75
2022/08/05 02:16:33;;;;;;;6.95;2.50;;;;;;;19.63;75.66;92977.00;2110451;28;20028;-75
2022/08/05 02:17:40;;;;;;;3.25;2.60;;;;;;;19.61;75.72;92977.44;2109409;28;20032;-75
2022/08/05 02:18:55;;;;;;;3.05;2.65;;;;;;;19.62;75.37;92981.63;2112056;27;20148;-75
2022/08/05 02:20:01;;;;;;;2.83;2.63;;;;;;;19.68;76.10;92979.75;2129417;27;20471;-74
2022/08/05 02:21:08;;;;;;;4.53;2.40;;;;;;;19.88;74.19;92976.22;2136733;27;20030;-75
2022/08/05 02:22:35;;;;;;;9.65;2.70;;;;;;;19.96;73.64;92988.16;2137577;27;20033;-75
2022/08/05 02:23:39;;;;;;;6.68;2.60;;;;;;;19.87;74.38;92989.06;2136418;27;20411;-75
2022/08/05 02:24:45;;;;;;;4.10;2.80;;;;;;;19.89;74.17;92994.03;2136740;27;20124;-75
2022/08/05 02:25:49;;;;;;;3.33;2.70;;;;;;;19.85;75.19;92994.22;2126675;27;20055;-75
2022/08/05 02:26:56;;;;;;;4.20;2.70;;;;;;;19.74;77.03;92991.38;2127653;27;20575;-76
2022/08/05 02:27:58;;;;;;;4.53;2.67;;;;;;;19.76;75.76;92993.66;2118164;28;20702;-74
2022/08/05 02:29:00;;;;;;;5.00;2.88;;;;;;;19.78;75.43;92993.91;2120274;27;20975;-76
2022/08/05 02:30:03;;;;;;;4.43;2.70;;;;;;;19.56;77.32;92994.38;2136747;27;20383;-75
2022/08/05 02:31:10;;;;;;;3.10;2.53;;;;;;;19.55;78.14;92993.63;2127448;27;20063;-74
2022/08/05 02:32:12;;;;;;;3.72;2.78;;;;;;;19.67;76.08;92991.06;2119576;27;20057;-74
2022/08/05 02:33:17;;;;;;;4.78;2.67;;;;;;;19.58;77.91;93000.09;2127405;27;20025;-75
2022/08/05 02:34:20;;;;;;;5.93;2.90;;;;;;;19.52;77.89;93002.72;2137265;27;20038;-74
2022/08/05 02:35:23;;;;;;;5.07;3.40;;;;;;;19.56;77.54;93005.22;2136516;27;20057;-75
2022/08/05 02:36:26;;;;;;;4.47;2.47;;;;;;;19.49;78.81;93006.38;2136221;27;20026;-74
2022/08/05 02:37:29;;;;;;;4.93;2.80;;;;;;;19.31;79.55;93009.34;2137219;27;20073;-76
2022/08/05 02:38:31;;;;;;;3.55;2.55;;;;;;;19.15;80.48;93012.63;2136721;27;20037;-74
2022/08/05 02:39:35;;;;;;;4.97;3.03;;;;;;;19.18;80.50;93008.94;2118908;28;20173;-74
2022/08/05 02:40:41;;;;;;;2.90;2.60;;;;;;;19.04;81.50;93013.94;2119766;27;20023;-73
2022/08/05 02:41:44;;;;;;;5.20;2.70;;;;;;;19.10;81.23;93027.59;2136067;27;20429;-74
2022/08/05 02:42:46;;;;;;;4.40;2.22;;;;;;;19.09;83.01;93026.81;2137814;27;20097;-76
2022/08/05 02:43:49;;;;;;;4.50;2.40;;;;;;;19.08;81.30;93035.44;2136087;27;20440;-75
2022/08/05 02:44:51;;;;;;;6.20;2.78;;;;;;;19.11;82.11;93039.91;2137377;27;20456;-76
2022/08/05 02:45:53;;;;;;;4.63;2.65;;;;;;;19.12;81.14;93041.41;2127923;27;20057;-76
2022/08/05 02:46:56;;;;;;;3.20;2.90;;;;;;;19.19;79.93;93037.56;2127116;27;20110;-75
2022/08/05 02:48:00;;;;;;;2.63;2.42;;;;;;;19.28;79.41;93042.84;2136840;27;20026;-77
2022/08/05 02:49:03;;;;;;;4.55;2.95;;;;;;;19.24;79.73;93042.28;2118678;28;20122;-77
2022/08/05 02:50:06;;;;;;;4.03;2.80;;;;;;;19.24;79.48;93047.72;2120060;27;20027;-76
2022/08/05 02:51:08;;;;;;;3.17;2.92;;;;;;;19.25;78.94;93052.66;2136494;27;20452;-75
2022/08/05 02:52:14;;;;;;;3.80;3.25;;;;;;;19.23;78.79;93049.69;2136668;27;20039;-75
2022/08/05 02:53:17;;;;;;;4.03;2.83;;;;;;;19.18;79.46;93055.00;2136724;27;20152;-75
2022/08/05 02:54:19;;;;;;;6.38;3.20;;;;;;;19.19;79.28;93057.25;2136498;27;20052;-74
2022/08/05 02:55:21;;;;;;;3.67;2.90;;;;;;;19.15;79.84;93059.44;2137269;27;20079;-75
2022/08/05 02:56:23;;;;;;;3.15;2.80;;;;;;;19.12;79.00;93063.06;2136690;27;20030;-74
2022/08/05 02:57:25;;;;;;;3.25;2.95;;;;;;;19.17;78.95;93059.69;2127145;27;20067;-74
2022/08/05 02:58:26;;;;;;;4.97;3.42;;;;;;;19.25;77.76;93062.75;2128313;27;20123;-74
2022/08/05 02:59:29;;;;;;;3.70;3.15;;;;;;;19.20;77.48;93058.75;2135790;27;20027;-74
2022/08/05 03:00:33;;;;;;;9.07;3.63;;;;;;;19.20;76.39;93060.72;2137190;27;20079;-74
2022/08/05 03:01:39;;;;;;;7.95;3.33;;;;;;;19.16;77.12;93062.88;2127550;27;20076;-74
2022/08/05 03:02:42;;;;;;;8.05;2.95;;;;;;;19.13;77.00;93059.88;2127697;27;20781;-74
2022/08/05 03:03:48;;;;;;;4.22;3.55;;;;;;;19.18;76.04;93060.44;2137219;27;20041;-75
2022/08/05 03:04:52;;;;;;;4.88;3.40;;;;;;;19.16;75.29;93055.50;2135349;27;20489;-75
2022/08/05 03:05:54;;;;;;;4.45;3.20;;;;;;;19.17;75.20;93056.97;2136716;27;20057;-75
2022/08/05 03:06:57;;;;;;;5.68;3.30;;;;;;;19.15;75.39;93058.69;2137143;27;20075;-75
2022/08/05 03:07:58;;;;;;;3.70;3.00;;;;;;;19.05;76.57;93058.81;2135562;27;20026;-75
2022/08/05 03:08:59;;;;;;;5.50;3.20;;;;;;;19.01;77.43;93060.97;2137416;27;20035;-74
2022/08/05 03:10:01;;;;;;;4.18;3.40;;;;;;;18.86;80.09;93052.09;2136630;27;20029;-75
2022/08/05 03:11:02;;;;;;;3.60;3.30;;;;;;;18.67;80.27;93059.69;2136892;27;20045;-75
2022/08/05 03:12:04;;;;;;;4.05;3.65;;;;;;;18.54;81.32;93057.25;2128469;27;20041;-75
2022/08/05 03:13:14;;;;;;;6.20;3.45;;;;;;;18.60;80.15;93051.94;2120072;27;20164;-75
2022/08/05 03:14:15;;;;;;;4.03;3.58;;;;;;;18.50;80.20;93055.97;2129516;27;20071;-75
2022/08/05 03:15:15;;;;;;;4.88;3.60;;;;;;;18.48;80.00;93053.72;2136964;27;20146;-74
2022/08/05 03:16:17;;;;;;;4.15;3.38;;;;;;;18.47;79.93;93052.22;2135372;27;20037;-74
2022/08/05 03:17:18;;;;;;;5.28;3.50;;;;;;;18.38;80.42;93047.66;2119267;28;20019;-74
2022/08/05 03:18:19;;;;;;;6.30;3.63;;;;;;;18.27;81.85;93042.06;2110300;28;20078;-74
2022/08/05 03:19:20;;;;;;;4.68;3.60;;;;;;;18.19;82.71;93045.59;2127894;27;20042;-75
2022/08/05 03:20:20;;;;;;;4.20;3.42;;;;;;;18.11;83.83;93043.25;2136705;27;20127;-75
2022/08/05 03:21:22;;;;;;;4.68;3.70;;;;;;;18.10;84.05;93049.88;2127129;27;20031;-75
2022/08/05 03:22:23;;;;;;;4.03;3.58;;;;;;;18.01;84.61;93052.69;2119224;27;20035;-75
2022/08/05 03:23:26;;;;;;;3.90;3.50;;;;;;;18.05;84.32;93045.13;2118469;27;20035;-75
2022/08/05 03:24:28;;;;;;;3.30;3.10;;;;;;;17.99;84.71;93044.28;2119224;27;20450;-76
2022/08/05 03:25:29;;;;;;;4.10;3.70;;;;;;;17.97;85.11;93044.00;2125133;27;20027;-75
2022/08/05 03:26:30;;;;;;;3.60;3.30;;;;;;;17.79;86.26;93049.56;2121672;27;20030;-74
2022/08/05 03:27:31;;;;;;;4.57;3.15;;;;;;;17.73;86.29;93046.72;2121753;27;20370;-75
2022/08/05 03:28:32;;;;;;;5.43;3.85;;;;;;;17.70;87.18;93050.38;2128770;27;20049;-76
2022/08/05 03:29:34;;;;;;;5.30;3.55;;;;;;;17.71;87.39;93038.34;2113532;28;20027;-74
2022/08/05 03:30:36;;;;;;;4.18;3.60;;;;;;;17.78;86.60;93042.66;2104347;28;20134;-75
2022/08/05 03:31:37;;;;;;;7.18;3.85;;;;;;;17.76;87.28;93039.69;2121630;27;20077;-74
2022/08/05 03:32:38;;;;;;;4.68;3.28;;;;;;;17.66;87.61;93047.09;2131200;27;20035;-75
2022/08/05 03:33:40;;;;;;;5.80;3.60;;;;;;;17.58;88.64;93046.69;2130216;27;20045;-77
2022/08/05 03:34:43;;;;;;;4.18;3.42;;;;;;;17.50;89.00;93048.25;2130476;27;20023;-77
2022/08/05 03:35:45;;;;;;;3.80;3.45;;;;;;;17.43;89.65;93047.84;2130210;27;20117;-76
2022/08/05 03:36:46;;;;;;;3.70;3.40;;;;;;;17.36;89.84;93047.00;2130498;27;20049;-76
2022/08/05 03:37:47;;;;;;;4.05;3.33;;;;;;;17.32;90.17;93041.00;2131059;27;20034;-75
2022/08/05 03:38:48;;;;;;;5.60;3.55;;;;;;;17.28;90.77;93045.09;2112403;28;20104;-76
2022/08/05 03:39:56;;;;;;;4.07;3.78;;;;;;;17.26;90.86;93045.56;2106206;28;20039;-77
2022/08/05 03:40:57;;;;;;;4.68;3.58;;;;;;;17.25;92.09;93038.69;2121474;27;20031;-76
2022/08/05 03:41:57;;;;;;;8.88;3.58;;;;;;;17.30;90.86;93038.03;2131092;27;20030;-75
2022/08/05 03:42:59;;;;;;;3.47;3.22;;;;;;;17.24;91.56;93039.13;2121748;27;20130;-75
2022/08/05 03:44:00;;;;;;;5.07;3.85;;;;;;;17.25;91.05;93038.69;2121370;27;20042;-75
2022/08/05 03:45:00;;;;;;;3.88;3.47;;;;;;;17.19;91.65;93040.50;2122083;27;20168;-75
2022/08/05 03:46:02;;;;;;;3.55;3.30;;;;;;;17.09;92.76;93039.06;2122152;27;20047;-75
2022/08/05 03:47:03;;;;;;;4.40;3.85;;;;;;;16.98;93.02;93031.47;2131161;27;20018;-75
2022/08/05 03:48:05;;;;;;;5.60;3.75;;;;;;;17.01;93.09;93033.25;2121231;27;20109;-76
2022/08/05 03:49:06;;;;;;;4.50;3.92;;;;;;;17.07;93.34;93036.81;2121548;27;20027;-75
2022/08/05 03:50:07;;;;;;;5.65;3.83;;;;;;;17.02;93.28;93032.03;2131159;27;20031;-75
2022/08/05 03:51:16;;;;;;;3.90;3.53;;;;;;;17.02;94.16;93034.00;2112554;28;20073;-76
2022/08/05 03:52:26;;;;;;;3.72;3.40;;;;;;;16.96;94.67;93028.47;2114838;27;20028;-75
2022/08/05 03:53:53;;;;;;;4.18;3.78;;;;;;;16.80;96.56;93034.25;2122004;27;20640;-75
2022/08/05 03:55:00;;;;;;;5.47;3.45;;;;;;;16.74;97.16;93028.00;2130058;27;20464;-75
2022/08/05 03:56:25;;;;;;;4.88;3.25;;;;;;;16.74;97.69;93030.69;2121824;27;20031;-75
2022/08/05 03:57:29;;;;;;;5.45;3.88;;;;;;;16.72;97.50;93022.25;2124284;27;20042;-75
2022/08/05 03:58:33;;;;;;;4.05;3.58;;;;;;;16.81;96.25;93019.53;2130620;27;20058;-75
2022/08/05 03:59:41;;;;;;;3.45;3.17;;;;;;;16.81;96.17;93014.16;2130633;27;20357;-76
2022/08/05 04:00:44;;;;;;;3.70;3.22;;;;;;;16.80;96.89;93024.19;2129208;27;20038;-78
2022/08/05 04:01:48;;;;;;;3.95;3.50;;;;;;;16.71;97.73;93021.50;2131351;27;20082;-76
2022/08/05 04:02:50;;;;;;;4.25;3.50;;;;;;;16.75;97.82;93022.13;2130618;27;20072;-74
2022/08/05 04:03:52;;;;;;;5.53;3.83;;;;;;;16.69;98.13;93020.50;2130794;27;20026;-75
2022/08/05 04:04:54;;;;;;;7.43;3.60;;;;;;;16.55;99.35;93025.34;2122151;27;20072;-76
2022/08/05 04:05:57;;;;;;;3.92;3.63;;;;;;;16.64;98.83;93035.34;2121373;27;20446;-77
2022/08/05 04:06:59;;;;;;;5.15;3.65;;;;;;;16.71;97.92;93043.09;2130478;27;20023;-75
2022/08/05 04:08:08;;;;;;;4.32;3.72;;;;;;;16.80;97.36;93036.94;2131120;27;20065;-76
2022/08/05 04:09:10;;;;;;;4.90;3.78;;;;;;;16.67;98.55;93041.78;2120780;27;20105;-75
2022/08/05 04:10:12;;;;;;;3.67;3.38;;;;;;;16.69;98.52;93040.13;2112391;28;20039;-75
2022/08/05 04:11:14;;;;;;;3.90;3.53;;;;;;;16.69;98.82;93042.09;2121409;27;20035;-76
2022/08/05 04:12:15;;;;;;;4.00;3.53;;;;;;;16.62;99.48;93040.44;2130457;27;20026;-75
2022/08/05 04:13:17;;;;;;;3.75;3.45;;;;;;;16.60;99.84;93048.28;2121616;27;20023;-75
2022/08/05 04:14:18;;;;;;;5.72;3.72;;;;;;;16.51;100.00;93040.94;2119034;27;20051;-76
2022/08/05 04:15:19;;;;;;;5.10;3.63;;;;;;;16.53;100.00;93040.50;2122224;27;20385;-76
2022/08/05 04:16:20;;;;;;;3.78;3.28;;;;;;;16.60;99.76;93040.91;2121359;27;20023;-76
2022/08/05 04:17:21;;;;;;;5.07;3.63;;;;;;;16.62;99.84;93041.19;2122508;27;20034;-76
2022/08/05 04:18:23;;;;;;;7.60;3.47;;;;;;;16.59;100.00;93042.13;2121107;27;20035;-77
2022/08/05 04:19:25;;;;;;;6.10;3.95;;;;;;;16.56;100.00;93045.72;2122109;27;20027;-75
2022/08/05 04:20:25;;;;;;;3.83;3.40;;;;;;;16.54;100.00;93050.06;2122220;27;20062;-75
2022/08/05 04:21:27;;;;;;;5.05;3.60;;;;;;;16.62;100.00;93053.94;2120847;27;20345;-75
2022/08/05 04:22:29;;;;;;;5.13;3.75;;;;;;;16.66;100.00;93059.19;2122352;27;20461;-74
2022/08/05 04:23:31;;;;;;;3.90;3.45;;;;;;;16.66;100.00;93051.09;2121447;27;20431;-74
2022/08/05 04:24:32;;;;;;;4.55;3.90;;;;;;;16.65;100.00;93050.34;2121564;27;20095;-75
2022/08/05 04:25:33;;;;;;;5.10;3.70;;;;;;;16.65;100.00;93053.03;2110672;28;20555;-76
2022/08/05 04:26:34;;;;;;;5.30;3.80;;;;;;;16.68;100.00;93049.44;2110100;28;20073;-75
2022/08/05 04:27:35;;;;;;;4.68;3.33;;;;;;;16.63;100.00;93052.72;2118901;27;20469;-75
2022/08/05 04:28:36;;;;;;;6.38;3.47;;;;;;;16.59;100.00;93044.81;2119147;27;20035;-75
2022/08/05 04:29:37;;;;;;;4.00;3.60;;;;;;;16.58;100.00;93039.88;2122076;27;20031;-77
2022/08/05 04:30:38;;;;;;;4.25;3.70;;;;;;;16.70;100.00;93041.63;2117766;27;20071;-75
2022/08/05 04:31:39;;;;;;;3.78;3.45;;;;;;;16.62;100.00;93049.28;2118794;27;20072;-75
2022/08/05 04:32:40;;;;;;;3.88;3.58;;;;;;;16.74;100.00;93055.00;2121403;27;20509;-75
2022/08/05 04:33:41;;;;;;;3.95;3.65;;;;;;;16.84;100.00;93054.47;2121348;27;20015;-76
2022/08/05 04:34:42;;;;;;;3.95;3.22;;;;;;;17.08;98.47;93048.38;2110469;28;20169;-76
2022/08/05 04:35:43;;;;;;;5.50;4.03;;;;;;;16.94;99.52;93054.44;2110503;27;20038;-76
2022/08/05 04:36:44;;;;;;;5.82;3.50;;;;;;;16.95;99.60;93062.09;2117966;27;20534;-75
2022/08/05 04:37:45;;;;;;;4.70;3.72;;;;;;;17.12;97.65;93057.06;2117305;28;20019;-75
2022/08/05 04:38:46;;;;;;;5.47;3.78;;;;;;;17.22;97.05;93052.34;2122089;27;20054;-76
2022/08/05 04:39:47;;;;;;;5.00;3.63;;;;;;;17.23;96.11;93053.84;2120730;27;20031;-75
2022/08/05 04:40:48;;;;;;;4.93;3.67;;;;;;;17.26;97.03;93061.78;2121345;27;20047;-75
2022/08/05 04:41:49;;;;;;;3.95;3.17;;;;;;;17.28;97.46;93058.59;2122114;27;20030;-77
2022/08/05 04:42:50;;;;;;;6.95;3.38;;;;;;;17.34;96.25;93062.19;2121073;27;20023;-75
2022/08/05 04:43:51;;;;;;;4.70;3.15;;;;;;;17.40;97.58;93057.63;2122337;27;20027;-76
2022/08/05 04:44:52;;;;;;;4.68;3.50;;;;;;;17.55;94.62;93053.00;2117808;27;20409;-75
2022/08/05 04:45:53;;;;;;;6.45;3.67;;;;;;;17.62;95.18;93058.06;2119229;27;20042;-75
2022/08/05 04:46:54;;;;;;;3.67;3.25;;;;;;;17.66;94.54;93065.25;2119987;27;20023;-75
2022/08/05 04:48:07;;;;;;;4.40;3.65;;;;;;;17.77;92.85;93062.78;2119400;27;20667;-76
2022/08/05 04:49:08;;;;;;;6.32;3.83;;;;;;;17.88;91.59;93065.72;2121035;27;20168;-75
2022/08/05 04:50:09;;;;;;;4.68;4.10;;;;;;;18.02;90.51;93078.50;2120545;27;20453;-74
2022/08/05 04:51:11;;;;;;;4.43;3.90;;;;;;;18.05;90.31;93076.84;2119995;27;20435;-74
2022/08/05 04:52:12;;;;;;;6.38;4.00;;;;;;;18.06;91.00;93079.09;2119548;27;20027;-76
2022/08/05 04:53:15;;;;;;;5.50;3.40;;;;;;;18.15;90.25;93088.31;2118083;27;20077;-77
2022/08/05 04:54:18;;;;;;;6.05;3.88;;;;;;;18.20;90.11;93090.38;2118854;27;20066;-75
2022/08/05 04:55:20;;;;;;;8.73;3.65;;;;;;;18.33;89.00;93101.69;2121027;27;20025;-76
2022/08/05 04:56:21;;;;;;;7.78;3.67;;;;;;;18.61;87.14;93105.63;2119368;27;20106;-76
2022/08/05 04:57:22;;;;;;;5.93;3.95;;;;;;;18.66;87.00;93115.06;2119806;27;20103;-75
2022/08/05 04:58:23;;;;;;;4.75;3.70;;;;;;;18.74;85.39;93124.31;2121100;27;20390;-75
2022/08/05 04:59:24;;;;;;;4.07;3.72;;;;;;;18.71;85.75;93130.66;2119239;27;20497;-76
2022/08/05 05:00:25;;;;;;;6.97;3.47;;;;;;;18.64;86.67;93133.72;2101691;28;20040;-76
2022/08/05 05:01:26;;;;;;;3.92;3.35;;;;;;;18.72;86.54;93144.97;2110336;28;20050;-76